Time;durP1;ratioP1;P1;durP2;ratioP2;P2;SDS_P1;SDS_P2;PMS_P1;PMS_P2;Temp;Humidity;BMP_temperature;BMP_pressure;BME280_temperature;BME280_humidity;BME280_pressure;Samples;Min_cycle;Max_cycle;Signal;HPM_P1;HPM_P2
2020/12/21 00:01:13;;;;;;;10.77;9.87;;;;;;;6.84;83.95;101003.06;5045483;28;20238;-81
2020/12/21 00:03:39;;;;;;;10.07;8.97;;;;;;;6.83;83.78;101002.19;5049670;28;20278;-81
2020/12/21 00:06:09;;;;;;;9.10;8.30;;;;;;;6.84;83.51;101000.47;5043660;28;20244;-81
2020/12/21 00:08:35;;;;;;;8.73;8.03;;;;;;;6.90;83.46;101008.31;5034688;28;20576;-81
2020/12/21 00:11:01;;;;;;;8.93;8.07;;;;;;;6.80;83.19;100997.00;5052231;28;20208;-80
2020/12/21 00:13:28;;;;;;;8.87;8.07;;;;;;;6.86;83.08;100991.00;5044819;28;20614;-81
2020/12/21 00:15:54;;;;;;;9.30;8.30;;;;;;;6.88;83.91;100991.88;5048426;28;20200;-80
2020/12/21 00:18:20;;;;;;;9.47;8.57;;;;;;;6.87;83.92;100985.78;5044622;28;20221;-81
2020/12/21 00:20:45;;;;;;;8.83;8.03;;;;;;;6.88;83.60;101000.50;5044896;28;20215;-81
2020/12/21 00:23:11;;;;;;;8.63;7.93;;;;;;;6.86;83.83;100997.03;5053002;28;20247;-80
2020/12/21 00:25:37;;;;;;;8.93;8.23;;;;;;;6.84;83.69;101003.06;5048339;28;20289;-80
2020/12/21 00:28:04;;;;;;;11.97;7.10;;;;;;;6.82;83.75;101007.38;5053131;28;20200;-81
2020/12/21 00:30:30;;;;;;;8.17;7.57;;;;;;;6.81;83.31;101001.31;5058897;28;20208;-81
2020/12/21 00:32:56;;;;;;;7.93;7.23;;;;;;;6.78;83.21;101005.63;5058883;28;20235;-81
2020/12/21 00:35:21;;;;;;;8.27;7.47;;;;;;;6.77;83.47;101012.53;5059639;28;20221;-81
2020/12/21 00:37:47;;;;;;;8.10;7.40;;;;;;;6.82;82.92;101017.75;5056036;28;20225;-80
2020/12/21 00:40:13;;;;;;;7.07;6.47;;;;;;;6.78;83.13;101018.59;5057417;28;20267;-81
2020/12/21 00:42:39;;;;;;;8.20;7.50;;;;;;;6.76;83.69;101016.00;5060973;28;20206;-81
2020/12/21 00:45:06;;;;;;;7.37;6.77;;;;;;;6.79;82.93;101020.34;5056341;28;20277;-81
2020/12/21 00:47:32;;;;;;;7.50;6.80;;;;;;;6.80;82.58;101025.53;5064427;28;20199;-80
2020/12/21 00:49:58;;;;;;;7.07;6.47;;;;;;;6.80;83.49;101028.13;5056787;28;20203;-81
2020/12/21 00:52:24;;;;;;;6.47;5.97;;;;;;;6.84;83.02;101029.00;5061637;28;20197;-81
2020/12/21 00:54:50;;;;;;;7.37;6.43;;;;;;;6.67;83.57;101028.91;5054972;28;20564;-81
2020/12/21 00:57:16;;;;;;;7.00;6.40;;;;;;;6.66;83.94;101028.06;5062882;28;20221;-79
2020/12/21 00:59:41;;;;;;;5.97;5.37;;;;;;;6.69;82.69;101029.78;5062223;28;20201;-81
2020/12/21 01:02:08;;;;;;;5.57;5.07;;;;;;;6.70;82.13;101026.31;5060080;28;20210;-80
2020/12/21 01:04:34;;;;;;;7.20;5.93;;;;;;;6.72;82.11;101024.63;5051773;28;20219;-79
2020/12/21 01:07:00;;;;;;;5.67;5.27;;;;;;;6.55;82.21;101040.06;5062305;28;20566;-81
2020/12/21 01:09:26;;;;;;;6.20;5.60;;;;;;;6.60;82.92;101030.63;5050654;28;20224;-81
2020/12/21 01:11:53;;;;;;;6.67;6.07;;;;;;;6.56;82.36;101034.91;5062858;28;20213;-80
2020/12/21 01:14:18;;;;;;;6.13;5.20;;;;;;;6.42;82.07;101028.75;5058379;28;20225;-80
2020/12/21 01:16:44;;;;;;;7.07;5.30;;;;;;;6.43;82.74;101029.63;5062827;28;20318;-80
2020/12/21 01:19:11;;;;;;;5.80;5.27;;;;;;;6.38;82.82;101037.34;5061785;28;20298;-80
2020/12/21 01:21:37;;;;;;;5.80;5.30;;;;;;;6.21;82.35;101036.34;5056287;28;20211;-80
2020/12/21 01:24:03;;;;;;;5.60;5.10;;;;;;;6.15;82.46;101034.56;5049681;28;20295;-79
2020/12/21 01:26:30;;;;;;;6.03;5.43;;;;;;;6.16;82.94;101033.69;5056863;28;20229;-81
2020/12/21 01:28:56;;;;;;;6.00;5.40;;;;;;;6.16;82.63;101033.69;5059314;28;20202;-80
2020/12/21 01:31:23;;;;;;;8.27;5.20;;;;;;;6.14;82.82;101035.41;5056728;28;20203;-81
2020/12/21 01:33:51;;;;;;;5.13;4.63;;;;;;;6.14;82.14;101040.59;5058808;28;20232;-81
2020/12/21 01:36:18;;;;;;;5.83;5.30;;;;;;;6.09;81.96;101035.38;5047249;28;20230;-81
2020/12/21 01:38:43;;;;;;;4.90;4.40;;;;;;;5.94;82.28;101032.59;5050165;28;20211;-80
2020/12/21 01:41:10;;;;;;;5.50;4.93;;;;;;;5.94;82.46;101037.78;5055876;28;20233;-81
2020/12/21 01:43:36;;;;;;;5.00;4.50;;;;;;;5.87;81.86;101044.66;5056633;28;20224;-81
2020/12/21 01:46:08;;;;;;;6.03;5.43;;;;;;;5.75;83.21;101036.75;5056440;28;20209;-80
2020/12/21 01:48:35;;;;;;;5.20;4.70;;;;;;;5.82;82.88;101037.69;5054631;28;20194;-81
2020/12/21 01:51:01;;;;;;;6.03;5.37;;;;;;;5.73;82.37;101041.91;5058737;28;20205;-81
2020/12/21 01:53:28;;;;;;;5.93;5.40;;;;;;;5.73;82.28;101041.06;5046514;28;20221;-80
2020/12/21 01:55:56;;;;;;;5.53;4.83;;;;;;;5.74;82.64;101033.28;5063793;28;20716;-81
2020/12/21 01:58:22;;;;;;;5.20;4.77;;;;;;;5.78;82.23;101029.84;5054763;28;20241;-81
2020/12/21 02:00:48;;;;;;;7.03;4.87;;;;;;;5.76;81.97;101030.69;5058459;28;20198;-81
2020/12/21 02:03:14;;;;;;;6.37;5.87;;;;;;;5.77;82.20;101028.13;5054386;28;20238;-80
2020/12/21 02:05:40;;;;;;;5.07;4.57;;;;;;;5.70;82.54;101026.31;5062668;28;20270;-81
2020/12/21 02:08:06;;;;;;;5.67;5.00;;;;;;;5.71;82.17;101022.91;5062367;28;20663;-81
2020/12/21 02:10:33;;;;;;;5.40;5.00;;;;;;;5.73;82.72;101025.50;5056622;28;20210;-81
2020/12/21 02:12:59;;;;;;;5.63;5.10;;;;;;;5.72;82.16;101028.94;5048423;28;20210;-81
2020/12/21 02:15:25;;;;;;;5.57;5.07;;;;;;;5.63;82.67;101024.53;5057221;28;20230;-81
2020/12/21 02:17:52;;;;;;;5.87;5.17;;;;;;;5.61;82.17;101027.94;5060580;28;20264;-81
2020/12/21 02:20:27;;;;;;;5.23;4.83;;;;;;;5.53;81.87;101015.81;5055484;28;20217;-80
2020/12/21 02:22:53;;;;;;;5.20;4.70;;;;;;;5.55;81.68;101015.81;5056202;28;20667;-81
2020/12/21 02:25:19;;;;;;;5.27;4.77;;;;;;;5.50;81.78;101020.94;5058796;28;20225;-81
2020/12/21 02:27:44;;;;;;;6.40;4.60;;;;;;;5.38;81.92;101015.63;5055980;28;20209;-81
2020/12/21 02:30:11;;;;;;;5.40;5.00;;;;;;;5.29;82.93;101005.16;5059596;28;20208;-80
2020/12/21 02:32:37;;;;;;;6.40;4.80;;;;;;;5.25;82.89;101018.91;5055740;28;20203;-81
2020/12/21 02:35:03;;;;;;;5.00;4.50;;;;;;;5.27;82.60;101015.50;5056819;28;20229;-81
2020/12/21 02:37:30;;;;;;;5.23;4.80;;;;;;;5.29;82.82;101012.91;5063456;28;20225;-81
2020/12/21 02:39:56;;;;;;;5.63;5.13;;;;;;;5.24;82.92;101015.47;5060954;28;20199;-81
2020/12/21 02:42:21;;;;;;;5.17;4.67;;;;;;;5.20;83.29;101010.22;5056054;28;20202;-80
2020/12/21 02:44:47;;;;;;;7.70;6.60;;;;;;;5.29;83.22;101003.44;5053560;28;20263;-80
2020/12/21 02:47:13;;;;;;;6.93;5.67;;;;;;;5.29;83.74;101011.22;5054593;28;20671;-81
2020/12/21 02:49:39;;;;;;;8.20;5.53;;;;;;;5.21;84.35;101007.63;5053577;28;20208;-80
2020/12/21 02:52:05;;;;;;;5.50;5.00;;;;;;;5.19;84.09;101004.16;5060398;28;20241;-80
2020/12/21 02:54:31;;;;;;;6.60;5.87;;;;;;;5.20;84.10;101000.75;5058943;28;20236;-80
2020/12/21 02:56:57;;;;;;;6.70;6.10;;;;;;;5.26;85.05;101007.72;5057998;28;20221;-80
2020/12/21 02:59:23;;;;;;;9.77;6.20;;;;;;;5.28;84.65;101016.38;5057946;28;20202;-80
2020/12/21 03:01:49;;;;;;;6.53;5.93;;;;;;;5.36;84.74;101017.31;5061126;28;20203;-81
2020/12/21 03:04:15;;;;;;;6.97;6.03;;;;;;;5.35;83.88;101016.47;5062246;28;20229;-81
2020/12/21 03:06:41;;;;;;;6.20;5.60;;;;;;;5.26;84.29;101012.91;5060194;28;20209;-80
2020/12/21 03:09:06;;;;;;;6.13;5.20;;;;;;;5.34;84.04;101021.63;5056048;28;20201;-80
2020/12/21 03:11:33;;;;;;;9.57;5.63;;;;;;;5.36;83.91;101014.72;5060489;28;20680;-81
2020/12/21 03:13:59;;;;;;;7.57;5.90;;;;;;;5.30;84.40;101023.28;5049093;28;20702;-80
2020/12/21 03:16:25;;;;;;;5.80;5.13;;;;;;;5.34;84.14;101019.88;5063421;28;20199;-80
2020/12/21 03:18:51;;;;;;;6.57;5.33;;;;;;;5.25;83.62;101024.97;5053581;28;20205;-80
2020/12/21 03:21:17;;;;;;;7.20;6.27;;;;;;;5.25;83.77;101034.44;5063114;28;20196;-81
2020/12/21 03:23:43;;;;;;;5.53;5.00;;;;;;;5.31;84.20;101031.91;5059315;28;20269;-81
2020/12/21 03:26:09;;;;;;;6.47;5.87;;;;;;;5.35;84.09;101024.22;5061193;28;20557;-81
2020/12/21 03:28:36;;;;;;;7.90;5.50;;;;;;;5.33;84.11;101028.53;5050532;28;20197;-81
2020/12/21 03:31:02;;;;;;;6.07;4.73;;;;;;;5.27;83.58;101028.44;5061411;28;20312;-80
2020/12/21 03:33:28;;;;;;;5.90;4.83;;;;;;;5.28;83.62;101024.13;5059684;28;20227;-80
2020/12/21 03:35:53;;;;;;;6.53;5.73;;;;;;;5.27;83.99;101020.69;5061987;28;20207;-81
2020/12/21 03:38:19;;;;;;;6.37;5.53;;;;;;;5.29;83.43;101021.56;5050596;28;20241;-80
2020/12/21 03:40:45;;;;;;;5.50;4.97;;;;;;;5.18;83.30;101018.84;5062648;28;20208;-80
2020/12/21 03:43:11;;;;;;;5.27;4.87;;;;;;;5.17;82.91;101024.88;5055475;28;20229;-80
2020/12/21 03:45:38;;;;;;;5.43;4.67;;;;;;;5.10;82.46;101025.63;5054750;28;20201;-81
2020/12/21 03:48:03;;;;;;;5.67;5.17;;;;;;;5.09;82.79;101023.88;5052318;28;20225;-81
2020/12/21 03:50:29;;;;;;;6.13;5.17;;;;;;;5.06;82.29;101026.44;5057722;28;20201;-81
2020/12/21 03:52:55;;;;;;;5.77;5.27;;;;;;;4.97;81.78;101034.97;5063529;28;20292;-81
2020/12/21 03:55:21;;;;;;;7.93;4.90;;;;;;;5.02;82.53;101029.84;5050760;28;20237;-81
2020/12/21 03:57:47;;;;;;;6.07;5.47;;;;;;;5.04;83.20;101020.38;5055302;28;20218;-81
2020/12/21 04:00:13;;;;;;;7.73;6.10;;;;;;;4.94;82.58;101015.94;5055315;28;20202;-80
2020/12/21 04:02:39;;;;;;;5.60;5.10;;;;;;;4.88;82.92;101024.47;5058019;28;20201;-80
2020/12/21 04:05:05;;;;;;;6.60;6.00;;;;;;;4.89;85.23;101027.94;5049318;28;20275;-81
2020/12/21 04:07:31;;;;;;;6.97;6.33;;;;;;;4.93;85.03;101025.41;5051910;28;20222;-80
2020/12/21 04:09:57;;;;;;;6.03;5.43;;;;;;;5.00;84.09;101033.28;5049004;28;20206;-81
2020/12/21 04:12:23;;;;;;;7.17;5.37;;;;;;;4.97;83.63;101029.78;5045844;28;20233;-80
2020/12/21 04:14:49;;;;;;;8.43;5.03;;;;;;;4.91;83.55;101027.09;5051963;28;20238;-81
2020/12/21 04:17:15;;;;;;;6.07;4.90;;;;;;;4.92;82.89;101025.41;5063966;28;20250;-81
2020/12/21 04:19:41;;;;;;;7.43;5.17;;;;;;;4.97;83.24;101029.78;5059227;28;20252;-81
2020/12/21 04:22:08;;;;;;;5.87;5.37;;;;;;;4.99;82.87;101024.63;5067053;28;20202;-80
2020/12/21 04:24:34;;;;;;;8.50;5.13;;;;;;;5.01;82.47;101029.81;5060924;28;20691;-81
2020/12/21 04:27:00;;;;;;;5.73;4.97;;;;;;;4.95;83.27;101030.59;5049464;28;20213;-80
2020/12/21 04:29:26;;;;;;;6.37;5.27;;;;;;;4.95;83.71;101033.19;5051009;28;20208;-80
2020/12/21 04:31:53;;;;;;;5.70;5.20;;;;;;;4.97;83.87;101031.50;5050050;28;20230;-81
2020/12/21 04:34:19;;;;;;;7.27;5.03;;;;;;;5.01;83.84;101032.41;5053183;28;20223;-80
2020/12/21 04:36:45;;;;;;;5.47;4.97;;;;;;;5.00;83.74;101022.91;5056434;28;20290;-81
2020/12/21 04:39:11;;;;;;;6.13;4.87;;;;;;;5.07;83.61;101030.75;5063923;28;20206;-80
2020/12/21 04:41:37;;;;;;;6.33;5.07;;;;;;;5.11;83.61;101026.50;5055614;28;20194;-81
2020/12/21 04:44:03;;;;;;;6.17;5.67;;;;;;;5.07;84.04;101030.75;5055859;28;20576;-81
2020/12/21 04:46:29;;;;;;;6.37;5.37;;;;;;;5.12;84.44;101028.25;5060222;28;20203;-81
2020/12/21 04:48:58;;;;;;;7.13;6.03;;;;;;;5.15;84.16;101030.84;5054605;28;20210;-80
2020/12/21 04:51:33;;;;;;;7.77;6.00;;;;;;;5.13;84.82;101032.56;5058289;28;20210;-80
2020/12/21 04:53:59;;;;;;;6.20;5.70;;;;;;;5.17;84.31;101040.41;5059211;28;20564;-81
2020/12/21 04:56:26;;;;;;;7.20;6.50;;;;;;;5.23;84.98;101028.38;5052094;28;20201;-80
2020/12/21 04:58:51;;;;;;;7.00;6.00;;;;;;;5.29;84.66;101031.91;5051220;28;20233;-80
2020/12/21 05:01:17;;;;;;;7.00;6.33;;;;;;;5.28;84.02;101025.00;5064804;28;20288;-80
2020/12/21 05:03:48;;;;;;;7.20;6.50;;;;;;;5.30;84.00;101022.44;5064611;28;20245;-81
2020/12/21 05:06:14;;;;;;;7.27;6.57;;;;;;;5.21;84.33;101028.34;5060919;28;20209;-80
2020/12/21 05:08:40;;;;;;;7.63;6.93;;;;;;;5.26;84.78;101024.09;5061720;28;20204;-80
2020/12/21 05:11:07;;;;;;;8.20;7.33;;;;;;;5.27;84.64;101017.19;5064870;28;20298;-81
2020/12/21 05:13:34;;;;;;;10.20;7.23;;;;;;;5.27;84.24;101020.69;5048836;28;20291;-80
2020/12/21 05:16:02;;;;;;;10.27;7.73;;;;;;;5.28;84.80;101021.53;5059357;28;20208;-80
2020/12/21 05:18:30;;;;;;;8.10;7.30;;;;;;;5.29;85.00;101018.09;5062727;28;20683;-79
2020/12/21 05:20:57;;;;;;;7.90;6.90;;;;;;;5.29;83.95;101016.41;5059678;28;20598;-80
2020/12/21 05:23:24;;;;;;;10.47;6.97;;;;;;;5.22;84.24;101014.56;5071156;22;20239;-82
2020/12/21 05:26:01;;;;;;;7.93;6.77;;;;;;;5.22;84.18;101016.28;5051156;28;20202;-82
2020/12/21 05:28:29;;;;;;;7.50;6.67;;;;;;;5.20;83.86;101015.41;5049698;28;20670;-82
2020/12/21 05:30:57;;;;;;;7.70;6.63;;;;;;;5.18;83.96;101017.97;5055446;28;20241;-81
2020/12/21 05:33:24;;;;;;;7.67;6.97;;;;;;;5.26;84.27;101013.75;5041039;28;20223;-81
2020/12/21 05:35:50;;;;;;;7.47;6.80;;;;;;;5.28;84.18;101022.41;5037648;28;20256;-80
2020/12/21 05:38:26;;;;;;;7.23;6.63;;;;;;;5.28;83.77;101026.72;5038495;28;20248;-83
2020/12/21 05:40:54;;;;;;;6.93;6.33;;;;;;;5.25;83.47;101026.66;5040013;28;20208;-82
2020/12/21 05:43:28;;;;;;;7.77;7.00;;;;;;;5.21;83.84;101020.56;5038075;28;20226;-82
2020/12/21 05:46:11;;;;;;;7.60;6.90;;;;;;;5.22;83.77;101018.88;5044819;28;20578;-81
2020/12/21 05:48:39;;;;;;;10.87;7.07;;;;;;;5.14;84.03;101021.38;5036843;28;20206;-81
2020/12/21 05:51:07;;;;;;;8.27;7.47;;;;;;;5.13;84.17;101011.84;5049897;28;20195;-81
2020/12/21 05:53:35;;;;;;;6.40;5.80;;;;;;;5.11;83.23;100998.03;5037539;28;20223;-81
2020/12/21 05:56:01;;;;;;;8.23;7.50;;;;;;;5.06;84.43;101004.88;5036001;28;20203;-81
2020/12/21 05:58:31;;;;;;;8.57;7.37;;;;;;;5.10;84.26;101001.47;5034235;28;20248;-81
2020/12/21 06:00:57;;;;;;;8.13;7.13;;;;;;;5.11;84.02;101001.50;5044117;28;20201;-80
2020/12/21 06:03:36;;;;;;;8.60;7.80;;;;;;;5.10;84.43;101011.84;5038716;28;20252;-81
2020/12/21 06:06:06;;;;;;;8.70;6.97;;;;;;;5.17;83.90;101000.69;5035557;28;20202;-79
2020/12/21 06:08:34;;;;;;;14.30;7.63;;;;;;;5.16;84.16;101001.56;5031159;28;20200;-81
2020/12/21 06:11:08;;;;;;;8.43;7.63;;;;;;;5.18;83.34;100999.84;5032874;28;20200;-80
2020/12/21 06:13:39;;;;;;;8.47;7.67;;;;;;;5.20;83.41;100992.13;5033697;28;20735;-81
2020/12/21 06:16:06;;;;;;;8.00;7.17;;;;;;;5.15;83.50;100998.09;5039998;28;20201;-80
2020/12/21 06:18:31;;;;;;;8.63;7.60;;;;;;;5.06;83.12;100995.41;5033688;28;20232;-81
2020/12/21 06:20:57;;;;;;;8.97;7.23;;;;;;;5.09;83.40;100997.16;5033830;28;20572;-80
2020/12/21 06:23:29;;;;;;;8.30;7.33;;;;;;;5.10;84.26;101006.66;5035984;28;20230;-80
2020/12/21 06:26:10;;;;;;;11.43;7.70;;;;;;;5.16;83.91;101010.19;5033554;28;20570;-82
2020/12/21 06:28:37;;;;;;;11.93;7.50;;;;;;;5.16;84.07;101012.78;5031535;28;20684;-82
2020/12/21 06:31:17;;;;;;;9.03;7.33;;;;;;;5.10;84.07;101006.66;5039263;28;20207;-81
2020/12/21 06:33:44;;;;;;;9.03;7.83;;;;;;;5.10;84.24;101014.41;5033478;28;20602;-80
2020/12/21 06:36:10;;;;;;;8.23;7.47;;;;;;;5.14;84.28;101021.38;5036228;28;20196;-81
2020/12/21 06:38:47;;;;;;;7.47;6.77;;;;;;;5.18;83.95;101020.56;5032993;28;20224;-82
2020/12/21 06:41:14;;;;;;;8.03;7.23;;;;;;;5.17;83.14;101018.81;5030182;28;20215;-81
2020/12/21 06:43:41;;;;;;;11.80;7.50;;;;;;;5.21;83.25;101030.94;5035999;28;20254;-80
2020/12/21 06:46:14;;;;;;;7.47;6.57;;;;;;;5.18;83.21;101026.59;5033588;28;20629;-82
2020/12/21 06:48:40;;;;;;;7.13;6.40;;;;;;;5.22;82.80;101024.06;5032672;28;21009;-82
2020/12/21 06:51:12;;;;;;;7.53;6.73;;;;;;;5.17;83.10;101027.47;5035620;28;20715;-83
2020/12/21 06:53:37;;;;;;;8.73;7.00;;;;;;;5.12;82.75;101023.06;5034433;28;20217;-81
2020/12/21 06:56:13;;;;;;;7.63;6.23;;;;;;;5.11;82.59;101017.03;5033345;28;20248;-82
2020/12/21 06:58:38;;;;;;;6.63;6.03;;;;;;;5.11;82.59;101014.44;5031560;28;20274;-81
2020/12/21 07:01:05;;;;;;;7.10;6.27;;;;;;;5.11;82.52;101013.56;5039034;28;20241;-82
2020/12/21 07:03:31;;;;;;;7.47;6.33;;;;;;;5.08;82.54;101021.31;5033075;28;20231;-84
2020/12/21 07:05:58;;;;;;;8.10;6.77;;;;;;;4.98;82.11;101018.56;5033810;28;20205;-83
2020/12/21 07:08:24;;;;;;;7.17;6.47;;;;;;;5.00;82.26;101025.50;5032508;28;20203;-82
2020/12/21 07:10:56;;;;;;;5.80;5.20;;;;;;;5.01;82.21;101016.88;5036090;28;20207;-80
2020/12/21 07:13:23;;;;;;;7.23;6.33;;;;;;;5.06;82.06;101026.44;5038863;28;20278;-83
2020/12/21 07:15:49;;;;;;;6.80;5.80;;;;;;;5.08;82.10;101016.97;5034951;28;20198;-80
2020/12/21 07:18:15;;;;;;;7.73;6.13;;;;;;;5.11;82.45;101023.91;5040290;28;20246;-80
2020/12/21 07:20:41;;;;;;;8.90;6.30;;;;;;;5.07;82.76;101024.72;5033363;28;20729;-81
2020/12/21 07:23:07;;;;;;;7.93;6.10;;;;;;;5.07;82.68;101029.91;5039033;28;20276;-82
2020/12/21 07:25:33;;;;;;;6.10;5.57;;;;;;;5.03;83.65;101036.75;5037385;28;20197;-81
2020/12/21 07:27:59;;;;;;;6.80;6.10;;;;;;;4.90;82.97;101038.31;5038248;28;20233;-80
2020/12/21 07:30:25;;;;;;;6.93;5.50;;;;;;;4.75;84.18;101051.00;5043684;28;20201;-81
2020/12/21 07:32:52;;;;;;;9.57;6.33;;;;;;;4.81;84.04;101040.75;5041616;28;20233;-81
2020/12/21 07:35:18;;;;;;;6.60;5.40;;;;;;;4.81;83.71;101042.47;5041254;28;20233;-81
2020/12/21 07:37:44;;;;;;;7.07;5.97;;;;;;;4.81;83.36;101037.31;5033018;28;20206;-81
2020/12/21 07:40:19;;;;;;;7.53;5.60;;;;;;;4.72;83.94;101033.75;5040510;28;20662;-81
2020/12/21 07:42:49;;;;;;;6.20;5.60;;;;;;;4.76;83.70;101030.34;5028624;28;20226;-81
2020/12/21 07:45:15;;;;;;;10.03;5.50;;;;;;;4.78;83.90;101033.84;5028873;28;20662;-81
2020/12/21 07:47:42;;;;;;;10.73;5.60;;;;;;;4.76;83.83;101040.69;5043837;28;20316;-81
2020/12/21 07:50:08;;;;;;;7.00;5.00;;;;;;;4.75;83.51;101038.94;5037824;28;20195;-81
2020/12/21 07:52:35;;;;;;;8.00;5.00;;;;;;;4.77;83.59;101029.50;5037563;28;20718;-81
2020/12/21 07:55:03;;;;;;;7.00;5.67;;;;;;;4.82;83.58;101034.75;5039618;28;20647;-82
2020/12/21 07:57:30;;;;;;;8.27;5.63;;;;;;;4.92;83.73;101034.03;5043296;28;20672;-82
2020/12/21 07:59:56;;;;;;;5.67;5.10;;;;;;;4.92;83.04;101031.44;5039580;28;20690;-81
2020/12/21 08:02:24;;;;;;;6.10;5.50;;;;;;;4.89;83.25;101033.09;5047667;28;20599;-81
2020/12/21 08:04:49;;;;;;;7.17;5.60;;;;;;;4.96;83.15;101034.94;5038571;28;20202;-82
2020/12/21 08:07:15;;;;;;;11.43;10.33;;;;;;;4.92;83.40;101031.44;5041778;28;20284;-81
2020/12/21 08:09:44;;;;;;;13.67;12.53;;;;;;;4.98;82.81;101038.41;5037010;28;20570;-81
2020/12/21 08:12:10;;;;;;;7.97;7.27;;;;;;;4.95;83.14;101034.03;5036757;28;20228;-81
2020/12/21 08:14:37;;;;;;;9.50;5.93;;;;;;;5.03;83.03;101022.94;5042894;28;20202;-80
2020/12/21 08:17:09;;;;;;;5.40;4.93;;;;;;;5.10;82.73;101027.38;5037372;28;20206;-80
2020/12/21 08:19:45;;;;;;;6.10;5.50;;;;;;;5.18;82.50;101023.16;5036675;28;20198;-81
2020/12/21 08:22:11;;;;;;;9.17;4.97;;;;;;;5.18;82.47;101023.16;5035869;28;20229;-81
2020/12/21 08:24:37;;;;;;;7.47;4.67;;;;;;;5.20;82.87;101016.28;5039740;28;20212;-82
2020/12/21 08:27:05;;;;;;;23.23;19.67;;;;;;;5.23;82.94;101007.66;5047047;28;20203;-81
2020/12/21 08:29:30;;;;;;;7.77;5.60;;;;;;;5.17;82.69;101014.53;5036877;28;20248;-81
2020/12/21 08:31:56;;;;;;;9.30;5.63;;;;;;;5.28;82.92;101006.88;5044280;28;20703;-81
2020/12/21 08:34:22;;;;;;;4.63;4.23;;;;;;;5.28;82.76;101006.88;5036642;28;20194;-80
2020/12/21 08:36:50;;;;;;;5.43;4.90;;;;;;;5.19;82.13;101014.53;5036322;28;20198;-81
2020/12/21 08:39:18;;;;;;;8.37;4.70;;;;;;;5.23;82.74;101016.28;5036233;28;20217;-81
2020/12/21 08:41:47;;;;;;;6.07;5.10;;;;;;;5.23;82.52;101012.84;5036627;28;20227;-81
2020/12/21 08:44:19;;;;;;;6.43;5.80;;;;;;;5.26;82.71;101012.91;5028338;28;20198;-81
2020/12/21 08:46:46;;;;;;;6.43;5.70;;;;;;;5.25;82.97;101013.72;5037116;28;20215;-81
2020/12/21 08:49:12;;;;;;;8.10;5.90;;;;;;;5.35;83.14;101011.28;5036831;28;20217;-81
2020/12/21 08:51:37;;;;;;;11.27;6.10;;;;;;;5.34;83.37;101014.72;5036237;28;20213;-81
2020/12/21 08:54:03;;;;;;;7.20;5.93;;;;;;;5.36;82.97;101018.19;5035919;28;20221;-81
2020/12/21 08:56:29;;;;;;;7.47;5.67;;;;;;;5.41;82.18;101013.09;5035987;28;20198;-82
2020/12/21 08:58:55;;;;;;;6.27;5.67;;;;;;;5.50;82.01;101014.91;5034796;28;20200;-81
2020/12/21 09:01:22;;;;;;;7.80;5.63;;;;;;;5.61;82.31;101017.59;5036043;28;20245;-81
2020/12/21 09:03:48;;;;;;;7.07;5.13;;;;;;;5.69;81.81;101016.84;5036574;28;20213;-82
2020/12/21 09:06:18;;;;;;;6.20;5.53;;;;;;;5.72;81.17;101019.44;5036682;28;20203;-81
2020/12/21 09:08:44;;;;;;;6.20;5.60;;;;;;;5.74;81.57;101025.50;5036143;28;20725;-82
2020/12/21 09:11:10;;;;;;;6.37;5.03;;;;;;;5.74;80.65;101022.91;5037034;28;20574;-82
2020/12/21 09:13:35;;;;;;;6.47;5.00;;;;;;;5.79;80.81;101022.97;5036870;28;20219;-81
2020/12/21 09:16:02;;;;;;;5.40;4.87;;;;;;;5.89;80.70;101024.81;5036820;28;20210;-80
2020/12/21 09:18:28;;;;;;;5.40;4.90;;;;;;;5.91;81.40;101025.69;5041459;28;20278;-80
2020/12/21 09:20:54;;;;;;;6.43;5.07;;;;;;;5.99;80.72;101035.28;5047338;28;20206;-82
2020/12/21 09:23:20;;;;;;;5.83;4.83;;;;;;;6.04;80.02;101026.69;5038614;28;20719;-82
2020/12/21 09:25:46;;;;;;;8.67;4.90;;;;;;;6.04;80.37;101024.09;5038362;28;20676;-82
2020/12/21 09:28:11;;;;;;;10.90;5.10;;;;;;;5.97;80.54;101012.81;5034079;28;20674;-80
2020/12/21 09:30:37;;;;;;;4.97;4.10;;;;;;;5.99;80.65;101014.56;5042164;28;20268;-82
2020/12/21 09:33:03;;;;;;;6.13;4.57;;;;;;;5.95;80.09;101018.84;5038938;28;20221;-81
2020/12/21 09:35:30;;;;;;;6.90;4.40;;;;;;;5.93;80.46;101016.19;5035590;28;20246;-81
2020/12/21 09:37:56;;;;;;;4.43;4.03;;;;;;;6.00;80.71;101011.09;5037332;28;20199;-81
2020/12/21 09:40:22;;;;;;;5.17;4.10;;;;;;;6.05;79.99;101006.84;5041939;28;20238;-80
2020/12/21 09:42:48;;;;;;;6.27;4.07;;;;;;;6.11;79.93;101012.06;5043581;28;20226;-79
2020/12/21 09:45:14;;;;;;;4.57;3.70;;;;;;;6.14;80.74;101004.31;5034894;28;20198;-80
2020/12/21 09:47:40;;;;;;;8.20;3.27;;;;;;;6.19;80.58;101002.63;5035345;28;20230;-79
2020/12/21 09:50:06;;;;;;;6.20;4.37;;;;;;;6.21;80.00;101002.66;5035594;28;20203;-81
2020/12/21 09:52:33;;;;;;;6.40;3.90;;;;;;;6.17;79.96;100999.16;5027251;28;20701;-81
2020/12/21 09:54:59;;;;;;;5.30;3.50;;;;;;;6.21;79.40;100990.56;5035807;28;20207;-81
2020/12/21 09:57:25;;;;;;;4.93;3.63;;;;;;;6.23;79.94;100996.63;5036069;28;20200;-79
2020/12/21 09:59:50;;;;;;;5.77;3.63;;;;;;;6.22;79.78;100984.50;5036068;28;20567;-81
2020/12/21 10:02:16;;;;;;;4.93;3.40;;;;;;;6.23;78.57;100983.66;5040220;28;20600;-81
2020/12/21 10:04:42;;;;;;;5.93;3.17;;;;;;;6.30;79.43;100974.19;5035665;28;20199;-80
2020/12/21 10:07:08;;;;;;;3.83;3.47;;;;;;;6.33;79.42;100976.81;5031182;28;20244;-82
2020/12/21 10:09:35;;;;;;;5.23;3.20;;;;;;;6.33;78.30;100967.31;5031927;28;20282;-80
2020/12/21 10:12:01;;;;;;;4.37;3.30;;;;;;;6.31;78.61;100968.16;5036220;28;20219;-82
2020/12/21 10:14:27;;;;;;;5.27;3.70;;;;;;;6.30;78.38;100969.00;5036905;28;20671;-82
2020/12/21 10:16:53;;;;;;;6.67;3.70;;;;;;;6.27;78.71;100980.22;5046366;28;20200;-82
2020/12/21 10:19:19;;;;;;;3.87;3.40;;;;;;;6.34;78.97;100970.75;5038446;28;20196;-81
2020/12/21 10:21:45;;;;;;;6.27;4.17;;;;;;;6.33;78.87;100962.13;5042170;28;20254;-80
2020/12/21 10:24:11;;;;;;;6.40;3.60;;;;;;;6.31;77.99;100965.56;5035594;28;20216;-81
2020/12/21 10:26:44;;;;;;;4.40;3.73;;;;;;;6.31;79.11;100965.56;5041538;28;20207;-80
2020/12/21 10:29:11;;;;;;;4.53;3.70;;;;;;;6.33;78.95;100959.53;5033217;28;21132;-81
2020/12/21 10:31:37;;;;;;;4.77;3.60;;;;;;;6.35;78.08;100949.19;5033581;28;20208;-81
2020/12/21 10:34:03;;;;;;;4.87;3.60;;;;;;;6.43;77.65;100944.03;5035278;28;20204;-82
2020/12/21 10:36:29;;;;;;;5.93;3.90;;;;;;;6.46;77.33;100941.44;5034472;28;20199;-81
2020/12/21 10:38:55;;;;;;;5.07;4.50;;;;;;;6.45;78.49;100938.00;5034578;28;20216;-81
2020/12/21 10:41:21;;;;;;;4.70;4.30;;;;;;;6.47;76.99;100922.47;5043299;28;20200;-81
2020/12/21 10:43:48;;;;;;;5.00;3.97;;;;;;;6.53;77.73;100912.97;5039619;28;20208;-81
2020/12/21 10:46:19;;;;;;;9.47;7.00;;;;;;;6.62;77.79;100922.53;5038743;28;20211;-82
2020/12/21 10:48:45;;;;;;;6.03;4.97;;;;;;;6.59;77.82;100919.06;5027787;28;20217;-82
2020/12/21 10:51:11;;;;;;;7.17;4.90;;;;;;;6.66;77.72;100913.03;5041321;28;20207;-81
2020/12/21 10:53:37;;;;;;;7.10;4.00;;;;;;;6.74;77.65;100914.81;5035989;28;20251;-81
2020/12/21 10:56:03;;;;;;;5.20;4.30;;;;;;;6.80;77.61;100911.38;5034965;28;20243;-81
2020/12/21 10:58:29;;;;;;;6.23;4.53;;;;;;;6.83;77.52;100901.00;5035057;28;20789;-80
2020/12/21 11:00:57;;;;;;;7.87;6.57;;;;;;;6.92;77.34;100895.84;5037140;28;20207;-80
2020/12/21 11:03:23;;;;;;;4.73;3.87;;;;;;;6.91;77.79;100901.88;5033955;28;20566;-81
2020/12/21 11:05:48;;;;;;;4.10;3.77;;;;;;;6.92;76.85;100893.25;5033414;28;20233;-81
2020/12/21 11:08:14;;;;;;;4.80;4.27;;;;;;;7.00;76.41;100887.19;5035744;28;20386;-81
2020/12/21 11:10:40;;;;;;;4.27;3.53;;;;;;;7.05;76.17;100888.94;5046484;28;20731;-79
2020/12/21 11:13:06;;;;;;;4.53;4.07;;;;;;;7.10;75.72;100873.41;5038452;28;20268;-84
2020/12/21 11:15:32;;;;;;;5.40;3.73;;;;;;;7.12;75.93;100867.34;5043842;28;20278;-82
2020/12/21 11:17:58;;;;;;;3.93;3.47;;;;;;;7.13;76.25;100861.28;5032903;28;20236;-80
2020/12/21 11:20:24;;;;;;;5.07;3.33;;;;;;;7.13;75.18;100868.22;5034348;28;20204;-82
2020/12/21 11:22:50;;;;;;;4.50;3.30;;;;;;;7.14;75.36;100860.44;5032790;28;20260;-81
2020/12/21 11:25:16;;;;;;;5.40;3.90;;;;;;;7.19;75.57;100857.84;5033720;28;20236;-81
2020/12/21 11:27:42;;;;;;;6.13;3.67;;;;;;;7.21;74.61;100863.03;5035331;28;20366;-83
2020/12/21 11:30:08;;;;;;;4.40;3.50;;;;;;;7.20;74.33;100859.59;5036461;28;20244;-84